メインページ
METAR-TAF:

METAR-TAF

空港 :

プスコフ, ロシア

緯度: 57-47-06N, 経度: 028-23-54E, 海抜: 47m

現時点の気象観測

当レポートは25分前の10:00(UTC)に作成
南西の風 14kt
気温 13°C
湿度 62%
気圧 1003 hPa
高度3000ftの雲はほとんどない, 積乱雲.
高度4000ftの千切れ雲あり

METAR: ULOO 231000Z 22007MPS P5000 FEW030CB BKN040 13/06 Q1003 R19/090070 NOSIG RMK QFE748

時間: 13:25 (10:25 UTC)

予報

当レポートは2時間26分前の07:59(UTC)に作成
予報は23日の 09時(UTC)から 23日の 18時(UTC)まで有効
南/南西の風 16kt、最大25ktの突風を伴う
視程: 6000m
高度1100ftの千切れ雲あり
高度2000ftの千切れ雲あり
23日の 09時(UTC)から 23日の 16時(UTC)まで一時的に
南西の風 19kt、最大31ktの突風を伴う
視程: 4000m
高度1100ftの千切れ雲あり
高度2000ftの千切れ雲あり, 積乱雲.
激しい雷雨, 小雨
23日の 16時(UTC)から 23日の 18時(UTC)まで一時的に
視程: 3100m
高度1100ftの千切れ雲あり
高度1700ftの千切れ雲あり, 積乱雲.
弱いにわか雨

TAF: ULOO 230759Z 2309/2318 21008G13MPS 6000 BKN011 BKN020 TEMPO 2309/2316 23010G16MPS 4000 -TSRA BKN011 BKN020CB TEMPO 2316/2318 3100 -SHRA BKN011 BKN017CB

4,000以上の空港の気象観測と天気予報(METAR報とTAF報)

利用可能な観測所は地図上に黄色い丸と赤い丸で示す。

丸の上にカーソルを重ねると観測所名を参照できる。

次にクリックすると気象観測と天気予報を参照できる。

マップの切り替え:黒色「×」印の緑ボタンをクリックして拡大、「-」印の緑ボタンをクリックして縮小、緑色の三角印をクリックして隣りの地図に切り替え


METAR-TAF: